Shao Shan 5 — VRKO9 — position and weather

sailwx.info

Track history (hours):
 
Tides and Currents Weather Stations Pressure Air Temp Water Temp Dewpoint Dewpoint Depression Visibility Wind Speed Wind Dir Waves Ship Positions

Shao Shan 5

Last reported at 2017-Aug-12 02:22 UTC. Time now 2017-Aug-21 12:03 UTC.
Position N 24°11' W 112°51'.
Warning: this ship's position is 9 days out of date.

Length 225 m; draft 7.2 m.

Type: Cargo ship. MMSI: 477325700.

Date/timePositionNaut miles runAvg speedWind from/ knotsBaromVisibWave heightAir tempDewpointWater temp
2017-Aug-12 02:22N 24°11' W 112°51'613.6
2017-Aug-12 01:55N 24°15' W 112°56'1713.2
2017-Aug-12 00:40N 24°25' W 113°10'513.2
2017-Aug-12 00:19N 24°28' W 113°14'413.0
2017-Aug-12 00:00N 24°31' W 113°18'713.1
2017-Aug-11 23:27N 24°35' W 113°24'613.0
2017-Aug-11 22:59N 24°39' W 113°29'4012.5
2017-Aug-11 19:46N 25°03' W 114°05'2612.7
2017-Aug-11 17:45N 25°19' W 114°27'313.2
2017-Aug-11 17:30N 25°21' W 114°29'713.2
2017-Aug-11 16:58N 25°25' W 114°35'613.4
2017-Aug-11 16:30N 25°29' W 114°41'713.6
2017-Aug-11 16:00N 25°33' W 114°47'813.5
2017-Aug-11 15:26N 25°38' W 114°54'613.5
2017-Aug-11 15:00N 25°42' W 114°59'814.8
2017-Aug-11 14:29N 25°47' W 115°05'1515.3
2017-Aug-11 13:29N 25°56' W 115°19'1015.3
2017-Aug-11 12:51N 26°02' W 115°27'715.1
2017-Aug-11 12:24N 26°06' W 115°33'615.1
2017-Aug-11 12:00N 26°10' W 115°38'815.4
2017-Aug-11 11:30N 26°15' W 115°45'815.3
2017-Aug-11 11:00N 26°20' W 115°52'715.3
2017-Aug-11 10:30N 26°25' W 115°58'1015.6
2017-Aug-11 09:52N 26°31' W 116°07'615.6
2017-Aug-11 09:31N 26°34' W 116°12'815.4
2017-Aug-11 09:00N 26°38' W 116°19'815.4
2017-Aug-11 08:30N 26°43' W 116°26'1715.4
2017-Aug-11 07:23N 26°54' W 116°41'714.9
2017-Aug-11 06:54N 26°59' W 116°47'814.8
2017-Aug-11 06:23N 27°03' W 116°54'614.8
2017-Aug-11 06:00N 27°06' W 116°59'2814.6
2017-Aug-11 04:06N 27°24' W 117°24'414.5
2017-Aug-11 03:48N 27°27' W 117°27'414.6
2017-Aug-11 03:30N 27°29' W 117°31'814.7
2017-Aug-11 02:56N 27°35' W 117°39'614.9
2017-Aug-11 02:30N 27°38' W 117°44'815.1
2017-Aug-11 02:00N 27°43' W 117°51'815.3
2017-Aug-11 01:30N 27°48' W 117°58'715.4
2017-Aug-11 01:00N 27°52' W 118°05'815.4
2017-Aug-11 00:30N 27°57' W 118°11'815.1
2017-Aug-11 00:00N 28°02' W 118°18'715.0
2017-Aug-10 23:30N 28°06' W 118°25'1314.7
2017-Aug-10 22:35N 28°14' W 118°37'114.8
2017-Aug-10 22:30N 28°15' W 118°39'814.7
2017-Aug-10 21:58N 28°20' W 118°46'914.9
2017-Aug-10 21:22N 28°25' W 118°53'514.9
2017-Aug-10 21:00N 28°29' W 118°58'815.2
2017-Aug-10 20:27N 28°34' W 119°06'715.3
2017-Aug-10 19:58N 28°39' W 119°12'715.5
2017-Aug-10 19:30N 28°43' W 119°18'815.7
2017-Aug-10 19:00N 28°48' W 119°25'815.7
2017-Aug-10 18:30N 28°53' W 119°32'815.8
2017-Aug-10 18:00N 28°58' W 119°39'815.6
2017-Aug-10 17:30N 29°03' W 119°47'815.4
2017-Aug-10 17:00N 29°08' W 119°53'815.6
2017-Aug-10 16:30N 29°13' W 120°00'815.3
2017-Aug-10 16:00N 29°17' W 120°08'715.0
2017-Aug-10 15:30N 29°22' W 120°14'815.0
2017-Aug-10 14:59N 29°27' W 120°22'715.0
2017-Aug-10 14:30N 29°31' W 120°28'1314.9
2017-Aug-10 13:37N 29°39' W 120°40'214.8
2017-Aug-10 13:27N 29°40' W 120°42'715.0
2017-Aug-10 13:00N 29°45' W 120°49'715.0
2017-Aug-10 12:30N 29°49' W 120°55'1115.0
2017-Aug-10 11:47N 29°56' W 121°05'415.2
2017-Aug-10 11:30N 29°59' W 121°09'815.2
2017-Aug-10 11:00N 30°04' W 121°15'815.2
2017-Aug-10 10:30N 30°08' W 121°22'815.4
2017-Aug-10 10:00N 30°13' W 121°29'815.3
2017-Aug-10 09:30N 30°18' W 121°37'1015.1
2017-Aug-10 08:49N 30°24' W 121°46'515.1
2017-Aug-10 08:30N 30°26' W 121°50'814.9
2017-Aug-10 07:59N 30°31' W 121°58'714.7
2017-Aug-10 07:29N 30°36' W 122°04'814.5
2017-Aug-10 06:56N 30°40' W 122°12'614.5
2017-Aug-10 06:30N 30°44' W 122°18'1814.6
2017-Aug-10 05:15N 30°55' W 122°35'514.3
2017-Aug-10 04:54N 30°58' W 122°39'614.4
2017-Aug-10 04:27N 31°02' W 122°45'714.5
2017-Aug-10 03:59N 31°06' W 122°52'714.6
2017-Aug-10 03:30N 31°10' W 122°58'814.6
2017-Aug-10 02:59N 31°15' W 123°05'714.7
2017-Aug-10 02:30N 31°19' W 123°12'714.7
2017-Aug-10 02:00N 31°23' W 123°19'1014.7
2017-Aug-10 01:21N 31°29' W 123°28'514.4
2017-Aug-10 01:00N 31°32' W 123°33'1214.5
2017-Aug-10 00:10N 31°38' W 123°45'214.3
2017-Aug-10 00:00N 31°40' W 123°47'22414.9
2017-Aug-09 08:56N 33°47' W 127°26'6414.8
2017-Aug-09 04:36N 34°23' W 128°31'114.6
2017-Aug-09 04:30N 34°23' W 128°32'914.9
2017-Aug-09 03:56N 34°28' W 128°41'815.1
2017-Aug-09 03:25N 34°32' W 128°49'815.2
2017-Aug-09 02:55N 34°36' W 128°56'615.3
2017-Aug-09 02:30N 34°40' W 129°03'2315.1
2017-Aug-09 00:57N 34°53' W 129°27'2014.9
2017-Aug-08 23:37N 35°03' W 129°47'414.9
2017-Aug-08 23:23N 35°05' W 129°51'1414.9
2017-Aug-08 22:25N 35°12' W 130°06'1315.0
2017-Aug-08 21:35N 35°19' W 130°19'214.8
2017-Aug-08 21:25N 35°20' W 130°21'614.9
2017-Aug-08 21:00N 35°24' W 130°28'714.7
2017-Aug-08 20:30N 35°28' W 130°35'714.8
2017-Aug-08 20:00N 35°31' W 130°43'814.8
2017-Aug-08 19:30N 35°35' W 130°51'714.9
2017-Aug-08 19:00N 35°39' W 130°59'714.5
2017-Aug-08 18:30N 35°43' W 131°06'714.5
2017-Aug-08 18:00N 35°47' W 131°14'714.5
2017-Aug-08 17:30N 35°51' W 131°21'714.5
2017-Aug-08 17:00N 35°55' W 131°29'2114.6
2017-Aug-08 15:35N 36°05' W 131°51'1114.8
2017-Aug-08 14:49N 36°11' W 132°03'614.8
2017-Aug-08 14:26N 36°14' W 132°09'614.8
2017-Aug-08 14:00N 36°18' W 132°16'915.2
2017-Aug-08 13:26N 36°22' W 132°25'615.1
2017-Aug-08 13:00N 36°25' W 132°32'1015.0
2017-Aug-08 12:19N 36°31' W 132°43'4314.7
2017-Aug-08 09:26N 36°52' W 133°29'714.3
2017-Aug-08 08:56N 36°55' W 133°36'914.5
2017-Aug-08 08:19N 36°60' W 133°46'514.7
2017-Aug-08 08:00N 37°02' W 133°51'1214.8
2017-Aug-08 07:10N 37°08' W 134°04'414.5
2017-Aug-08 06:54N 37°10' W 134°08'714.7
2017-Aug-08 06:26N 37°14' W 134°16'4614.7
2017-Aug-08 03:17N 37°36' W 135°07'  
Track history (hours):
 
Tides and Currents Weather Stations Pressure Air Temp Water Temp Dewpoint Dewpoint Depression Visibility Wind Speed Wind Dir Waves Ship Positions

Shao Shan 5

Last reported at 2017-Aug-12 02:22 UTC. Time now 2017-Aug-21 12:03 UTC.
Position N 24°11' W 112°51'.
Warning: this ship's position is 9 days out of date.

Length 225 m; draft 7.2 m.

Type: Cargo ship. MMSI: 477325700.

Date/timePositionNaut miles runAvg speedWind from/ knotsBaromVisibWave heightAir tempDewpointWater temp
2017-Aug-12 02:22N 24°11' W 112°51'613.6
2017-Aug-12 01:55N 24°15' W 112°56'1713.2
2017-Aug-12 00:40N 24°25' W 113°10'513.2
2017-Aug-12 00:19N 24°28' W 113°14'413.0
2017-Aug-12 00:00N 24°31' W 113°18'713.1
2017-Aug-11 23:27N 24°35' W 113°24'613.0
2017-Aug-11 22:59N 24°39' W 113°29'4012.5
2017-Aug-11 19:46N 25°03' W 114°05'2612.7
2017-Aug-11 17:45N 25°19' W 114°27'313.2
2017-Aug-11 17:30N 25°21' W 114°29'713.2
2017-Aug-11 16:58N 25°25' W 114°35'613.4
2017-Aug-11 16:30N 25°29' W 114°41'713.6
2017-Aug-11 16:00N 25°33' W 114°47'813.5
2017-Aug-11 15:26N 25°38' W 114°54'613.5
2017-Aug-11 15:00N 25°42' W 114°59'814.8
2017-Aug-11 14:29N 25°47' W 115°05'1515.3
2017-Aug-11 13:29N 25°56' W 115°19'1015.3
2017-Aug-11 12:51N 26°02' W 115°27'715.1
2017-Aug-11 12:24N 26°06' W 115°33'615.1
2017-Aug-11 12:00N 26°10' W 115°38'815.4
2017-Aug-11 11:30N 26°15' W 115°45'815.3
2017-Aug-11 11:00N 26°20' W 115°52'715.3
2017-Aug-11 10:30N 26°25' W 115°58'1015.6
2017-Aug-11 09:52N 26°31' W 116°07'615.6
2017-Aug-11 09:31N 26°34' W 116°12'815.4
2017-Aug-11 09:00N 26°38' W 116°19'815.4
2017-Aug-11 08:30N 26°43' W 116°26'1715.4
2017-Aug-11 07:23N 26°54' W 116°41'714.9
2017-Aug-11 06:54N 26°59' W 116°47'814.8
2017-Aug-11 06:23N 27°03' W 116°54'614.8
2017-Aug-11 06:00N 27°06' W 116°59'2814.6
2017-Aug-11 04:06N 27°24' W 117°24'414.5
2017-Aug-11 03:48N 27°27' W 117°27'414.6
2017-Aug-11 03:30N 27°29' W 117°31'814.7
2017-Aug-11 02:56N 27°35' W 117°39'614.9
2017-Aug-11 02:30N 27°38' W 117°44'815.1
2017-Aug-11 02:00N 27°43' W 117°51'815.3
2017-Aug-11 01:30N 27°48' W 117°58'715.4
2017-Aug-11 01:00N 27°52' W 118°05'815.4
2017-Aug-11 00:30N 27°57' W 118°11'815.1
2017-Aug-11 00:00N 28°02' W 118°18'715.0
2017-Aug-10 23:30N 28°06' W 118°25'1314.7
2017-Aug-10 22:35N 28°14' W 118°37'114.8
2017-Aug-10 22:30N 28°15' W 118°39'814.7
2017-Aug-10 21:58N 28°20' W 118°46'914.9
2017-Aug-10 21:22N 28°25' W 118°53'514.9
2017-Aug-10 21:00N 28°29' W 118°58'815.2
2017-Aug-10 20:27N 28°34' W 119°06'715.3
2017-Aug-10 19:58N 28°39' W 119°12'715.5
2017-Aug-10 19:30N 28°43' W 119°18'815.7
2017-Aug-10 19:00N 28°48' W 119°25'815.7
2017-Aug-10 18:30N 28°53' W 119°32'815.8
2017-Aug-10 18:00N 28°58' W 119°39'815.6
2017-Aug-10 17:30N 29°03' W 119°47'815.4
2017-Aug-10 17:00N 29°08' W 119°53'815.6
2017-Aug-10 16:30N 29°13' W 120°00'815.3
2017-Aug-10 16:00N 29°17' W 120°08'715.0
2017-Aug-10 15:30N 29°22' W 120°14'815.0
2017-Aug-10 14:59N 29°27' W 120°22'715.0
2017-Aug-10 14:30N 29°31' W 120°28'1314.9
2017-Aug-10 13:37N 29°39' W 120°40'214.8
2017-Aug-10 13:27N 29°40' W 120°42'715.0
2017-Aug-10 13:00N 29°45' W 120°49'715.0
2017-Aug-10 12:30N 29°49' W 120°55'1115.0
2017-Aug-10 11:47N 29°56' W 121°05'415.2
2017-Aug-10 11:30N 29°59' W 121°09'815.2
2017-Aug-10 11:00N 30°04' W 121°15'815.2
2017-Aug-10 10:30N 30°08' W 121°22'815.4
2017-Aug-10 10:00N 30°13' W 121°29'815.3
2017-Aug-10 09:30N 30°18' W 121°37'1015.1
2017-Aug-10 08:49N 30°24' W 121°46'515.1
2017-Aug-10 08:30N 30°26' W 121°50'814.9
2017-Aug-10 07:59N 30°31' W 121°58'714.7
2017-Aug-10 07:29N 30°36' W 122°04'814.5
2017-Aug-10 06:56N 30°40' W 122°12'614.5
2017-Aug-10 06:30N 30°44' W 122°18'1814.6
2017-Aug-10 05:15N 30°55' W 122°35'514.3
2017-Aug-10 04:54N 30°58' W 122°39'614.4
2017-Aug-10 04:27N 31°02' W 122°45'714.5
2017-Aug-10 03:59N 31°06' W 122°52'714.6
2017-Aug-10 03:30N 31°10' W 122°58'814.6
2017-Aug-10 02:59N 31°15' W 123°05'714.7
2017-Aug-10 02:30N 31°19' W 123°12'714.7
2017-Aug-10 02:00N 31°23' W 123°19'1014.7
2017-Aug-10 01:21N 31°29' W 123°28'514.4
2017-Aug-10 01:00N 31°32' W 123°33'1214.5
2017-Aug-10 00:10N 31°38' W 123°45'214.3
2017-Aug-10 00:00N 31°40' W 123°47'22414.9
2017-Aug-09 08:56N 33°47' W 127°26'6414.8
2017-Aug-09 04:36N 34°23' W 128°31'114.6
2017-Aug-09 04:30N 34°23' W 128°32'914.9
2017-Aug-09 03:56N 34°28' W 128°41'815.1
2017-Aug-09 03:25N 34°32' W 128°49'815.2
2017-Aug-09 02:55N 34°36' W 128°56'615.3
2017-Aug-09 02:30N 34°40' W 129°03'2315.1
2017-Aug-09 00:57N 34°53' W 129°27'2014.9
2017-Aug-08 23:37N 35°03' W 129°47'414.9
2017-Aug-08 23:23N 35°05' W 129°51'1414.9
2017-Aug-08 22:25N 35°12' W 130°06'1315.0
2017-Aug-08 21:35N 35°19' W 130°19'214.8
2017-Aug-08 21:25N 35°20' W 130°21'614.9
2017-Aug-08 21:00N 35°24' W 130°28'714.7
2017-Aug-08 20:30N 35°28' W 130°35'714.8
2017-Aug-08 20:00N 35°31' W 130°43'814.8
2017-Aug-08 19:30N 35°35' W 130°51'714.9
2017-Aug-08 19:00N 35°39' W 130°59'714.5
2017-Aug-08 18:30N 35°43' W 131°06'714.5
2017-Aug-08 18:00N 35°47' W 131°14'714.5
2017-Aug-08 17:30N 35°51' W 131°21'714.5
2017-Aug-08 17:00N 35°55' W 131°29'2114.6
2017-Aug-08 15:35N 36°05' W 131°51'1114.8
2017-Aug-08 14:49N 36°11' W 132°03'614.8
2017-Aug-08 14:26N 36°14' W 132°09'614.8
2017-Aug-08 14:00N 36°18' W 132°16'915.2
2017-Aug-08 13:26N 36°22' W 132°25'615.1
2017-Aug-08 13:00N 36°25' W 132°32'1015.0
2017-Aug-08 12:19N 36°31' W 132°43'4314.7
2017-Aug-08 09:26N 36°52' W 133°29'714.3
2017-Aug-08 08:56N 36°55' W 133°36'914.5
2017-Aug-08 08:19N 36°60' W 133°46'514.7
2017-Aug-08 08:00N 37°02' W 133°51'1214.8
2017-Aug-08 07:10N 37°08' W 134°04'414.5
2017-Aug-08 06:54N 37°10' W 134°08'714.7
2017-Aug-08 06:26N 37°14' W 134°16'4614.7
2017-Aug-08 03:17N 37°36' W 135°07'  

Dump ship's entire track history